Météo Nord-Pas-de-Calais   La météo au plus près de chez vous

Station météorologique

Observations météo à Tregunc (29293)

29293001 25 m Dernier relevé à 07:18
10.3°C
Humidité 97 % Vent 2.2 km/h

Journée consultée

Mardi 1 Septembre 2026

Synthèse de la journée

Périodes de référence en UTC

Température maximale

22.5°C

à 17:00

06h 06h

Température minimale

10.3°C

à 07:12

18h 18h

Rafale maximale

8 km/h

à 07:18

00h 00h

Précipitations

0 mm

Cumul quotidien

06h 06h

Graphiques de la journée

Heure locale Réduire

Données détaillées

Relevés météo

Pas de 6 minutes Afficher les relevés infra-horaires
Relevés météo détaillés à Tregunc pour le Mardi 1 Septembre 2026
Heure Température °C Point de rosée °C Humidité % Vent moyen (raf.), km/h Précipitations mm
07:18 10.3 °C 9.8 °C 97 % 5 km/h (8 km/h) 0 mm0 mm
07:12 10.3 °C 9.8 °C 97 % 4 km/h (6 km/h) 0 mm0 mm
07:06 10.6 °C 10.1 °C 97 % 2 km/h (4 km/h) 0 mm0 mm
07:00 10.6 °C 10.1 °C 97 % 3 km/h (5 km/h) 0 mm0 mm
06:54 10.5 °C 10 °C 97 % 4 km/h (6 km/h) 0 mm0 mm
06:48 10.6 °C 10.1 °C 97 % 5 km/h (6 km/h) 0 mm0 mm
06:42 10.6 °C 10.1 °C 97 % 4 km/h (6 km/h) 0 mm0 mm
06:36 10.7 °C 10.2 °C 97 % 4 km/h (6 km/h) 0 mm0 mm
06:30 10.6 °C 10 °C 96 % 3 km/h (6 km/h) 0 mm0 mm
06:24 10.9 °C 10.4 °C 97 % 2 km/h (5 km/h) 0 mm0 mm
06:18 10.9 °C 10.4 °C 97 % 2 km/h (5 km/h) 0 mm0 mm
06:12 11.2 °C 10.7 °C 97 % 2 km/h (3 km/h) 0 mm0 mm
06:06 11 °C 10.5 °C 97 % 0 km/h (3 km/h) 0 mm0 mm
06:00 11.2 °C 10.7 °C 97 % 0 km/h (3 km/h) 0 mm0 mm
05:54 11.2 °C 10.7 °C 97 % 2 km/h (4 km/h) 0 mm0 mm
05:48 11.2 °C 10.7 °C 97 % 4 km/h (6 km/h) 0 mm0 mm
05:42 11.3 °C 10.8 °C 97 % 4 km/h (6 km/h) 0 mm0 mm
05:36 11.3 °C 10.8 °C 97 % 0 km/h (5 km/h) 0 mm0 mm
05:30 11.3 °C 10.8 °C 97 % 0 km/h (0 km/h) 0 mm0 mm
05:24 11.2 °C 10.7 °C 97 % 0 km/h (3 km/h) 0 mm0 mm
05:18 11.2 °C 10.7 °C 97 % 0 km/h (3 km/h) 0 mm0 mm
05:12 11.2 °C 10.7 °C 97 % 0 km/h (3 km/h) 0 mm0 mm
05:06 11.2 °C 10.7 °C 97 % 0 km/h (3 km/h) 0 mm0 mm
05:00 11.2 °C 10.7 °C 97 % 0 km/h (3 km/h) 0 mm0 mm
04:54 11.3 °C 10.8 °C 97 % 2 km/h (3 km/h) 0 mm0 mm
04:48 11.2 °C 10.7 °C 97 % 0 km/h (3 km/h) 0 mm0 mm
04:42 11.3 °C 10.8 °C 97 % 0 km/h (3 km/h) 0 mm0 mm
04:36 11.4 °C 10.9 °C 97 % 2 km/h (4 km/h) 0 mm0 mm
04:30 11.2 °C 10.6 °C 96 % 3 km/h (5 km/h) 0 mm0 mm
04:24 11.3 °C 10.7 °C 96 % 3 km/h (5 km/h) 0 mm0 mm
04:18 11.4 °C 10.9 °C 97 % 3 km/h (5 km/h) 0 mm0 mm
04:12 11.4 °C 10.9 °C 97 % 2 km/h (4 km/h) 0 mm0 mm
04:06 11.4 °C 10.9 °C 97 % 2 km/h (5 km/h) 0 mm0 mm
04:00 11.5 °C 10.9 °C 96 % 3 km/h (5 km/h) 0 mm0 mm
03:54 11.6 °C 11.1 °C 97 % 4 km/h (6 km/h) 0 mm0 mm
03:48 11.5 °C 10.9 °C 96 % 4 km/h (6 km/h) 0 mm0 mm
03:42 11.4 °C 10.8 °C 96 % 3 km/h (5 km/h) 0 mm0 mm
03:36 11.7 °C 11.1 °C 96 % 0 km/h (4 km/h) 0 mm0 mm
03:30 11.7 °C 11.1 °C 96 % 0 km/h (3 km/h) 0 mm0 mm
03:24 11.7 °C 11.1 °C 96 % 2 km/h (4 km/h) 0 mm0 mm
03:18 11.7 °C 11.1 °C 96 % 4 km/h (5 km/h) 0 mm0 mm
03:12 11.8 °C 11.2 °C 96 % 3 km/h (5 km/h) 0 mm0 mm
03:06 11.8 °C 11.2 °C 96 % 0 km/h (4 km/h) 0 mm0 mm
03:00 11.8 °C 11.2 °C 96 % 0 km/h (0 km/h) 0 mm0 mm
02:54 11.8 °C 11 °C 95 % 0 km/h (0 km/h) 0 mm0 mm
02:48 11.9 °C 11.1 °C 95 % 0 km/h (2 km/h) 0 mm0 mm
02:42 11.9 °C 11.1 °C 95 % 0 km/h (3 km/h) 0 mm0 mm
02:36 12 °C 11.2 °C 95 % 2 km/h (3 km/h) 0 mm0 mm
02:30 12.2 °C 11.3 °C 94 % 0 km/h (3 km/h) 0 mm0 mm
02:24 12.3 °C 11.4 °C 94 % 0 km/h (2 km/h) 0 mm0 mm
02:18 12.3 °C 11.4 °C 94 % 0 km/h (5 km/h) 0 mm0 mm
02:12 12.5 °C 11.4 °C 93 % 3 km/h (5 km/h) 0 mm0 mm
02:06 12.7 °C 11.8 °C 94 % 2 km/h (5 km/h) 0 mm0 mm
02:00 12.8 °C 11.7 °C 93 % 0 km/h (4 km/h) 0 mm0 mm
01:54 12.8 °C 11.5 °C 92 % 0 km/h (0 km/h) 0 mm0 mm
01:48 12.9 °C 11.6 °C 92 % 0 km/h (4 km/h) 0 mm0 mm
01:42 13 °C 11.7 °C 92 % 0 km/h (4 km/h) 0 mm0 mm
01:36 13.1 °C 11.7 °C 91 % 2 km/h (4 km/h) 0 mm0 mm
01:30 13.3 °C 11.9 °C 91 % 3 km/h (4 km/h) 0 mm0 mm
01:24 13.6 °C 12.2 °C 91 % 3 km/h (4 km/h) 0 mm0 mm
01:18 13.9 °C 12.5 °C 91 % 3 km/h (5 km/h) 0 mm0 mm
01:12 13.7 °C 12.3 °C 91 % 3 km/h (5 km/h) 0 mm0 mm
01:06 13.9 °C 12.3 °C 90 % 2 km/h (4 km/h) 0 mm0 mm
01:00 14 °C 12 °C 88 % 2 km/h (3 km/h) 0 mm0 mm
00:54 14 °C 11.7 °C 86 % 0 km/h (3 km/h) 0 mm0 mm
00:48 14.3 °C 12 °C 86 % 2 km/h (5 km/h) 0 mm0 mm
00:42 14.7 °C 12.2 °C 85 % 3 km/h (5 km/h) 0 mm0 mm
00:36 14.9 °C 12.4 °C 85 % 4 km/h (6 km/h) 0 mm0 mm
00:30 15.1 °C 12.6 °C 85 % 4 km/h (6 km/h) 0 mm0 mm
00:24 15.2 °C 12.7 °C 85 % 4 km/h (6 km/h) 0 mm0 mm
00:18 15.3 °C 12.6 °C 84 % 4 km/h (7 km/h) 0 mm0 mm
00:12 15.5 °C 12.8 °C 84 % 4 km/h (7 km/h) 0 mm0 mm
00:06 15.5 °C 12.6 °C 83 % 4 km/h (6 km/h) 0 mm0 mm
00:00 15.6 °C 12.7 °C 83 % 4 km/h (7 km/h) 0 mm0 mm

Données via Météo-France

Relevés météo à Tregunc

Cette page rassemble les observations de la station de Tregunc : température, humidité, vent, précipitations et pression atmosphérique. Les graphiques facilitent le suivi de la journée, tandis que le tableau donne accès aux mesures horaires et infra-horaires disponibles.

Pour replacer ces mesures dans leur contexte, consultez la climatologie de Tregunc ainsi que ses normales et records. Retrouvez aussi la carte des observations météo en temps réel.